sensor_id;sensor_type;location;lat;lon;timestamp;pressure;altitude;pressure_sealevel;temperature;humidity
8894;BME280;4483;48.622;9.230;2022-09-13T00:02:14;97505.22;;;13.57;93.92
8894;BME280;4483;48.622;9.230;2022-09-13T00:04:41;97511.06;;;13.60;94.43
8894;BME280;4483;48.622;9.230;2022-09-13T00:07:07;97503.47;;;13.57;94.74
8894;BME280;4483;48.622;9.230;2022-09-13T00:09:34;97502.81;;;13.54;94.34
8894;BME280;4483;48.622;9.230;2022-09-13T00:12:01;97500.59;;;13.48;93.92
8894;BME280;4483;48.622;9.230;2022-09-13T00:14:28;97494.91;;;13.41;94.78
8894;BME280;4483;48.622;9.230;2022-09-13T00:16:55;97502.59;;;13.43;94.85
8894;BME280;4483;48.622;9.230;2022-09-13T00:19:23;97506.00;;;13.43;94.83
8894;BME280;4483;48.622;9.230;2022-09-13T00:21:49;97510.53;;;13.40;94.92
8894;BME280;4483;48.622;9.230;2022-09-13T00:24:16;97510.63;;;13.38;94.63
8894;BME280;4483;48.622;9.230;2022-09-13T00:26:42;97483.28;;;13.19;94.15
8894;BME280;4483;48.622;9.230;2022-09-13T00:29:10;97493.38;;;13.23;95.16
8894;BME280;4483;48.622;9.230;2022-09-13T00:31:36;97487.44;;;13.21;95.75
8894;BME280;4483;48.622;9.230;2022-09-13T00:34:03;97475.69;;;13.16;96.19
8894;BME280;4483;48.622;9.230;2022-09-13T00:36:31;97481.19;;;13.25;95.84
8894;BME280;4483;48.622;9.230;2022-09-13T00:38:58;97483.69;;;13.27;96.22
8894;BME280;4483;48.622;9.230;2022-09-13T00:41:25;97487.19;;;13.26;96.02
8894;BME280;4483;48.622;9.230;2022-09-13T00:43:54;97490.69;;;13.25;96.15
8894;BME280;4483;48.622;9.230;2022-09-13T00:46:30;97465.97;;;13.05;95.87
8894;BME280;4483;48.622;9.230;2022-09-13T00:49:02;97492.91;;;13.17;96.12
8894;BME280;4483;48.622;9.230;2022-09-13T00:51:35;97493.38;;;13.07;96.23
8894;BME280;4483;48.622;9.230;2022-09-13T00:54:02;97477.97;;;12.90;96.51
8894;BME280;4483;48.622;9.230;2022-09-13T00:56:32;97491.28;;;12.98;96.78
8894;BME280;4483;48.622;9.230;2022-09-13T00:59:04;97504.22;;;12.98;97.36
8894;BME280;4483;48.622;9.230;2022-09-13T01:01:37;97487.88;;;12.98;97.43
8894;BME280;4483;48.622;9.230;2022-09-13T01:04:05;97483.53;;;12.98;97.87
8894;BME280;4483;48.622;9.230;2022-09-13T01:06:35;97487.69;;;13.01;97.59
8894;BME280;4483;48.622;9.230;2022-09-13T01:09:03;97484.38;;;12.99;97.88
8894;BME280;4483;48.622;9.230;2022-09-13T01:11:38;97478.19;;;13.01;97.54
8894;BME280;4483;48.622;9.230;2022-09-13T01:14:07;97479.00;;;13.02;97.86
8894;BME280;4483;48.622;9.230;2022-09-13T01:16:35;97472.19;;;13.01;98.08
8894;BME280;4483;48.622;9.230;2022-09-13T01:19:02;97469.59;;;13.01;98.00
8894;BME280;4483;48.622;9.230;2022-09-13T01:25:25;97450.94;;;12.96;97.64
8894;BME280;4483;48.622;9.230;2022-09-13T01:28:11;97458.19;;;12.89;98.35
8894;BME280;4483;48.622;9.230;2022-09-13T01:30:47;97460.84;;;12.88;98.13
8894;BME280;4483;48.622;9.230;2022-09-13T01:33:38;97423.53;;;12.62;98.39
8894;BME280;4483;48.622;9.230;2022-09-13T01:39:07;97467.06;;;12.85;98.65
8894;BME280;4483;48.622;9.230;2022-09-13T01:41:47;97462.69;;;12.86;98.53
8894;BME280;4483;48.622;9.230;2022-09-13T01:44:27;97471.28;;;12.86;98.69
8894;BME280;4483;48.622;9.230;2022-09-13T01:47:02;97475.53;;;12.87;98.79
8894;BME280;4483;48.622;9.230;2022-09-13T01:49:40;97476.47;;;12.86;98.50
8894;BME280;4483;48.622;9.230;2022-09-13T01:52:13;97483.56;;;12.83;98.55
8894;BME280;4483;48.622;9.230;2022-09-13T01:54:49;97486.31;;;12.80;98.11
8894;BME280;4483;48.622;9.230;2022-09-13T01:57:27;97482.13;;;12.77;98.39
8894;BME280;4483;48.622;9.230;2022-09-13T01:59:59;97483.22;;;12.73;98.37
8894;BME280;4483;48.622;9.230;2022-09-13T02:02:32;97485.03;;;12.71;97.83
8894;BME280;4483;48.622;9.230;2022-09-13T02:05:03;97484.38;;;12.68;97.96
8894;BME280;4483;48.622;9.230;2022-09-13T02:07:34;97457.03;;;12.48;98.55
8894;BME280;4483;48.622;9.230;2022-09-13T02:10:06;97487.25;;;12.63;98.47
8894;BME280;4483;48.622;9.230;2022-09-13T02:12:36;97482.22;;;12.60;98.17
8894;BME280;4483;48.622;9.230;2022-09-13T02:15:09;97484.88;;;12.59;98.62
8894;BME280;4483;48.622;9.230;2022-09-13T02:17:42;97487.56;;;12.57;98.36
8894;BME280;4483;48.622;9.230;2022-09-13T02:20:14;97488.47;;;12.56;98.25
8894;BME280;4483;48.622;9.230;2022-09-13T02:22:47;97482.72;;;12.51;98.39
8894;BME280;4483;48.622;9.230;2022-09-13T02:25:18;97483.06;;;12.45;98.51
8894;BME280;4483;48.622;9.230;2022-09-13T02:27:50;97497.72;;;12.45;98.46
8894;BME280;4483;48.622;9.230;2022-09-13T02:30:18;97495.28;;;12.42;98.30
8894;BME280;4483;48.622;9.230;2022-09-13T02:32:51;97507.38;;;12.41;98.63
8894;BME280;4483;48.622;9.230;2022-09-13T02:35:22;97510.06;;;12.40;97.93
8894;BME280;4483;48.622;9.230;2022-09-13T02:37:56;97501.78;;;12.33;97.80
8894;BME280;4483;48.622;9.230;2022-09-13T02:40:26;97510.38;;;12.34;97.78
8894;BME280;4483;48.622;9.230;2022-09-13T02:42:59;97509.34;;;12.36;98.10
8894;BME280;4483;48.622;9.230;2022-09-13T02:45:30;97501.19;;;12.28;97.78
8894;BME280;4483;48.622;9.230;2022-09-13T02:48:03;97495.09;;;12.29;98.38
8894;BME280;4483;48.622;9.230;2022-09-13T02:50:43;97502.72;;;12.32;98.18
8894;BME280;4483;48.622;9.230;2022-09-13T02:53:17;97499.50;;;12.27;98.51
8894;BME280;4483;48.622;9.230;2022-09-13T02:55:53;97502.03;;;12.29;98.38
8894;BME280;4483;48.622;9.230;2022-09-13T02:58:29;97502.84;;;12.29;97.92
8894;BME280;4483;48.622;9.230;2022-09-13T03:01:00;97503.78;;;12.28;98.14
8894;BME280;4483;48.622;9.230;2022-09-13T03:03:28;97506.38;;;12.28;98.09
8894;BME280;4483;48.622;9.230;2022-09-13T03:05:55;97495.44;;;12.23;98.39
8894;BME280;4483;48.622;9.230;2022-09-13T03:08:22;97476.16;;;12.13;98.34
8894;BME280;4483;48.622;9.230;2022-09-13T03:10:57;97503.19;;;12.23;97.60
8894;BME280;4483;48.622;9.230;2022-09-13T03:13:50;97508.50;;;12.20;97.56
8894;BME280;4483;48.622;9.230;2022-09-13T03:16:31;97500.00;;;12.18;98.00
8894;BME280;4483;48.622;9.230;2022-09-13T03:19:14;97471.47;;;12.04;97.90
8894;BME280;4483;48.622;9.230;2022-09-13T03:21:53;97482.25;;;12.12;97.69
8894;BME280;4483;48.622;9.230;2022-09-13T03:24:27;97488.31;;;12.11;97.82
8894;BME280;4483;48.622;9.230;2022-09-13T03:27:10;97483.31;;;12.08;97.79
8894;BME280;4483;48.622;9.230;2022-09-13T03:29:49;97473.97;;;12.05;97.97
8894;BME280;4483;48.622;9.230;2022-09-13T03:32:25;97427.97;;;11.81;98.17
8894;BME280;4483;48.622;9.230;2022-09-13T03:35:01;97441.63;;;11.83;97.94
8894;BME280;4483;48.622;9.230;2022-09-13T03:37:32;97454.97;;;11.91;97.48
8894;BME280;4483;48.622;9.230;2022-09-13T03:40:05;97468.41;;;11.97;97.67
8894;BME280;4483;48.622;9.230;2022-09-13T03:42:38;97475.31;;;11.97;97.96
8894;BME280;4483;48.622;9.230;2022-09-13T03:45:08;97479.72;;;11.95;97.60
8894;BME280;4483;48.622;9.230;2022-09-13T03:47:36;97479.72;;;11.95;97.79
8894;BME280;4483;48.622;9.230;2022-09-13T03:50:07;97473.78;;;11.93;98.05
8894;BME280;4483;48.622;9.230;2022-09-13T03:52:36;97468.63;;;11.93;98.13
8894;BME280;4483;48.622;9.230;2022-09-13T03:55:03;97460.03;;;11.92;97.46
8894;BME280;4483;48.622;9.230;2022-09-13T03:57:30;97451.63;;;11.89;97.42
8894;BME280;4483;48.622;9.230;2022-09-13T03:59:57;97448.44;;;11.84;97.90
8894;BME280;4483;48.622;9.230;2022-09-13T04:02:25;97450.09;;;11.85;97.36
8894;BME280;4483;48.622;9.230;2022-09-13T04:04:52;97415.06;;;11.64;97.24
8894;BME280;4483;48.622;9.230;2022-09-13T04:07:22;97452.94;;;11.80;97.39
8894;BME280;4483;48.622;9.230;2022-09-13T04:09:49;97447.94;;;11.77;97.74
8894;BME280;4483;48.622;9.230;2022-09-13T04:12:16;97447.56;;;11.68;97.23
8894;BME280;4483;48.622;9.230;2022-09-13T04:14:43;97456.75;;;11.73;97.77
8894;BME280;4483;48.622;9.230;2022-09-13T04:17:10;97449.09;;;11.72;97.10
8894;BME280;4483;48.622;9.230;2022-09-13T04:19:37;97428.59;;;11.52;97.39
8894;BME280;4483;48.622;9.230;2022-09-13T04:22:04;97456.22;;;11.67;97.00
8894;BME280;4483;48.622;9.230;2022-09-13T04:24:32;97465.00;;;11.63;96.97
8894;BME280;4483;48.622;9.230;2022-09-13T04:26:59;97466.97;;;11.58;97.08
8894;BME280;4483;48.622;9.230;2022-09-13T04:29:26;97464.63;;;11.53;97.14
8894;BME280;4483;48.622;9.230;2022-09-13T04:31:53;97457.13;;;11.49;98.03
8894;BME280;4483;48.622;9.230;2022-09-13T04:34:20;97451.81;;;11.52;97.85
8894;BME280;4483;48.622;9.230;2022-09-13T04:36:48;97459.47;;;11.53;97.81
8894;BME280;4483;48.622;9.230;2022-09-13T04:39:15;97468.94;;;11.53;97.93
8894;BME280;4483;48.622;9.230;2022-09-13T04:41:44;97474.13;;;11.53;98.20
8894;BME280;4483;48.622;9.230;2022-09-13T04:44:11;97476.78;;;11.51;97.51
8894;BME280;4483;48.622;9.230;2022-09-13T04:46:38;97439.97;;;11.31;97.40
8894;BME280;4483;48.622;9.230;2022-09-13T04:49:04;97479.56;;;11.47;98.11
8894;BME280;4483;48.622;9.230;2022-09-13T04:51:31;97475.16;;;11.49;97.47
8894;BME280;4483;48.622;9.230;2022-09-13T04:53:58;97481.25;;;11.48;97.73
8894;BME280;4483;48.622;9.230;2022-09-13T04:56:25;97480.63;;;11.43;97.71
8894;BME280;4483;48.622;9.230;2022-09-13T04:58:54;97478.88;;;11.43;98.18
8894;BME280;4483;48.622;9.230;2022-09-13T05:01:21;97478.75;;;11.46;98.76
8894;BME280;4483;48.622;9.230;2022-09-13T05:03:50;97475.09;;;11.50;98.39
8894;BME280;4483;48.622;9.230;2022-09-13T05:06:17;97478.44;;;11.52;98.67
8894;BME280;4483;48.622;9.230;2022-09-13T05:08:44;97480.19;;;11.52;98.15
8894;BME280;4483;48.622;9.230;2022-09-13T05:11:15;97489.28;;;11.59;98.41
8894;BME280;4483;48.622;9.230;2022-09-13T05:13:42;97488.94;;;11.66;98.82
8894;BME280;4483;48.622;9.230;2022-09-13T05:16:10;97489.38;;;11.74;98.63
8894;BME280;4483;48.622;9.230;2022-09-13T05:18:36;97482.00;;;11.84;98.91
8894;BME280;4483;48.622;9.230;2022-09-13T05:21:03;97477.31;;;11.92;98.50
8894;BME280;4483;48.622;9.230;2022-09-13T05:23:30;97484.97;;;12.09;98.34
8894;BME280;4483;48.622;9.230;2022-09-13T05:26:00;97502.44;;;12.37;98.38
8894;BME280;4483;48.622;9.230;2022-09-13T05:28:27;97502.88;;;12.60;98.48
8894;BME280;4483;48.622;9.230;2022-09-13T05:30:55;97512.00;;;12.83;97.25
8894;BME280;4483;48.622;9.230;2022-09-13T05:33:24;97500.97;;;12.95;96.43
8894;BME280;4483;48.622;9.230;2022-09-13T05:35:51;97499.06;;;13.14;94.61
8894;BME280;4483;48.622;9.230;2022-09-13T05:38:18;97504.88;;;13.02;94.66
8894;BME280;4483;48.622;9.230;2022-09-13T05:40:45;97500.91;;;12.96;94.91
8894;BME280;4483;48.622;9.230;2022-09-13T05:43:12;97503.25;;;12.85;95.25
8894;BME280;4483;48.622;9.230;2022-09-13T05:45:39;97509.81;;;12.75;94.96
8894;BME280;4483;48.622;9.230;2022-09-13T05:48:06;97510.16;;;12.69;95.95
8894;BME280;4483;48.622;9.230;2022-09-13T05:50:37;97512.81;;;12.68;95.78
8894;BME280;4483;48.622;9.230;2022-09-13T05:53:04;97511.56;;;12.75;96.09
8894;BME280;4483;48.622;9.230;2022-09-13T05:55:31;97515.56;;;12.80;95.36
8894;BME280;4483;48.622;9.230;2022-09-13T05:57:58;97508.84;;;12.78;95.29
8894;BME280;4483;48.622;9.230;2022-09-13T06:00:26;97506.31;;;12.76;95.49
8894;BME280;4483;48.622;9.230;2022-09-13T06:02:53;97496.97;;;12.74;95.60
8894;BME280;4483;48.622;9.230;2022-09-13T06:05:19;97507.97;;;12.93;95.66
8894;BME280;4483;48.622;9.230;2022-09-13T06:07:47;97508.19;;;13.05;95.62
8894;BME280;4483;48.622;9.230;2022-09-13T06:10:14;97500.28;;;13.23;95.34
8894;BME280;4483;48.622;9.230;2022-09-13T06:12:40;97468.69;;;13.18;95.54
8894;BME280;4483;48.622;9.230;2022-09-13T06:15:08;97505.81;;;13.76;95.31
8894;BME280;4483;48.622;9.230;2022-09-13T06:17:35;97508.81;;;13.98;94.37
8894;BME280;4483;48.622;9.230;2022-09-13T06:20:02;97516.41;;;14.15;93.54
8894;BME280;4483;48.622;9.230;2022-09-13T06:22:29;97513.19;;;14.26;92.25
8894;BME280;4483;48.622;9.230;2022-09-13T06:24:58;97506.63;;;14.34;92.14
8894;BME280;4483;48.622;9.230;2022-09-13T06:27:25;97517.09;;;14.61;92.64
8894;BME280;4483;48.622;9.230;2022-09-13T06:29:52;97515.25;;;14.89;92.17
8894;BME280;4483;48.622;9.230;2022-09-13T06:32:19;97516.75;;;14.93;90.33
8894;BME280;4483;48.622;9.230;2022-09-13T06:34:46;97512.88;;;14.86;90.19
8894;BME280;4483;48.622;9.230;2022-09-13T06:37:12;97517.53;;;14.81;90.84
8894;BME280;4483;48.622;9.230;2022-09-13T06:39:39;97514.72;;;14.84;90.00
8894;BME280;4483;48.622;9.230;2022-09-13T06:42:07;97500.13;;;14.69;90.04
8894;BME280;4483;48.622;9.230;2022-09-13T06:44:34;97522.81;;;14.66;90.21
8894;BME280;4483;48.622;9.230;2022-09-13T06:47:00;97511.03;;;14.74;90.50
8894;BME280;4483;48.622;9.230;2022-09-13T06:49:27;97476.75;;;15.10;89.79
8894;BME280;4483;48.622;9.230;2022-09-13T06:51:55;97505.78;;;15.56;89.56
8894;BME280;4483;48.622;9.230;2022-09-13T06:54:22;97509.38;;;16.05;88.47
8894;BME280;4483;48.622;9.230;2022-09-13T06:56:49;97499.16;;;16.65;87.37
8894;BME280;4483;48.622;9.230;2022-09-13T06:59:16;97491.00;;;17.29;85.69
8894;BME280;4483;48.622;9.230;2022-09-13T07:01:43;97485.91;;;17.86;83.76
8894;BME280;4483;48.622;9.230;2022-09-13T07:04:12;97495.81;;;18.38;81.16
8894;BME280;4483;48.622;9.230;2022-09-13T07:06:40;97488.81;;;18.82;79.35
8894;BME280;4483;48.622;9.230;2022-09-13T07:09:10;97487.53;;;19.20;78.08
8894;BME280;4483;48.622;9.230;2022-09-13T07:11:38;97483.63;;;19.57;76.64
8894;BME280;4483;48.622;9.230;2022-09-13T07:14:06;97487.47;;;19.94;75.29
8894;BME280;4483;48.622;9.230;2022-09-13T07:16:36;97482.03;;;20.27;73.80
8894;BME280;4483;48.622;9.230;2022-09-13T07:19:04;97479.53;;;20.56;71.98
8894;BME280;4483;48.622;9.230;2022-09-13T07:21:33;97474.50;;;20.83;70.43
8894;BME280;4483;48.622;9.230;2022-09-13T07:24:00;97473.47;;;21.05;69.77
8894;BME280;4483;48.622;9.230;2022-09-13T07:26:27;97474.47;;;21.23;69.02
8894;BME280;4483;48.622;9.230;2022-09-13T07:28:55;97471.03;;;21.41;68.04
8894;BME280;4483;48.622;9.230;2022-09-13T07:31:24;97475.06;;;21.64;66.92
8894;BME280;4483;48.622;9.230;2022-09-13T07:33:54;97474.03;;;22.04;66.53
8894;BME280;4483;48.622;9.230;2022-09-13T07:36:22;97465.81;;;22.26;65.02
8894;BME280;4483;48.622;9.230;2022-09-13T07:38:49;97469.16;;;22.55;64.74
8894;BME280;4483;48.622;9.230;2022-09-13T07:41:17;97462.31;;;22.81;63.12
8894;BME280;4483;48.622;9.230;2022-09-13T07:43:44;97462.72;;;23.04;62.40
8894;BME280;4483;48.622;9.230;2022-09-13T07:46:12;97466.56;;;23.27;61.63
8894;BME280;4483;48.622;9.230;2022-09-13T07:48:41;97456.88;;;23.62;61.09
8894;BME280;4483;48.622;9.230;2022-09-13T07:51:11;97449.03;;;24.06;60.23
8894;BME280;4483;48.622;9.230;2022-09-13T07:53:39;97449.19;;;24.30;58.32
8894;BME280;4483;48.622;9.230;2022-09-13T07:56:08;97441.47;;;24.36;58.33
8894;BME280;4483;48.622;9.230;2022-09-13T07:58:36;97440.09;;;24.24;57.98
8894;BME280;4483;48.622;9.230;2022-09-13T08:01:05;97445.09;;;24.35;57.86
8894;BME280;4483;48.622;9.230;2022-09-13T08:03:33;97441.56;;;24.27;57.95
8894;BME280;4483;48.622;9.230;2022-09-13T08:06:00;97435.50;;;24.26;57.92
8894;BME280;4483;48.622;9.230;2022-09-13T08:08:29;97443.16;;;24.12;57.73
8894;BME280;4483;48.622;9.230;2022-09-13T08:10:56;97442.63;;;24.42;56.93
8894;BME280;4483;48.622;9.230;2022-09-13T08:13:24;97430.81;;;24.79;56.48
8894;BME280;4483;48.622;9.230;2022-09-13T08:15:50;97428.91;;;25.22;55.99
8894;BME280;4483;48.622;9.230;2022-09-13T08:18:17;97422.69;;;25.79;54.67
8894;BME280;4483;48.622;9.230;2022-09-13T08:20:44;97432.25;;;26.20;53.39
8894;BME280;4483;48.622;9.230;2022-09-13T08:23:11;97440.50;;;26.64;52.04
8894;BME280;4483;48.622;9.230;2022-09-13T08:25:39;97433.56;;;27.02;51.12
8894;BME280;4483;48.622;9.230;2022-09-13T08:28:07;97425.78;;;27.08;50.36
8894;BME280;4483;48.622;9.230;2022-09-13T08:30:35;97424.94;;;27.08;49.50
8894;BME280;4483;48.622;9.230;2022-09-13T08:33:02;97429.22;;;27.09;48.51
8894;BME280;4483;48.622;9.230;2022-09-13T08:35:29;97433.16;;;27.13;48.07
8894;BME280;4483;48.622;9.230;2022-09-13T08:37:56;97433.25;;;27.27;47.76
8894;BME280;4483;48.622;9.230;2022-09-13T08:40:26;97431.34;;;27.44;46.96
8894;BME280;4483;48.622;9.230;2022-09-13T08:43:00;97422.22;;;27.46;46.39
8894;BME280;4483;48.622;9.230;2022-09-13T08:45:28;97426.88;;;27.44;46.22
8894;BME280;4483;48.622;9.230;2022-09-13T08:47:56;97424.22;;;27.67;46.10
8894;BME280;4483;48.622;9.230;2022-09-13T08:50:27;97428.06;;;28.02;46.49
8894;BME280;4483;48.622;9.230;2022-09-13T08:53:09;97423.78;;;28.44;45.89
8894;BME280;4483;48.622;9.230;2022-09-13T08:55:47;97422.53;;;28.69;44.75
8894;BME280;4483;48.622;9.230;2022-09-13T08:58:30;97421.19;;;28.95;44.89
8894;BME280;4483;48.622;9.230;2022-09-13T09:01:03;97424.47;;;29.11;43.20
8894;BME280;4483;48.622;9.230;2022-09-13T09:03:40;97415.13;;;29.15;42.43
8894;BME280;4483;48.622;9.230;2022-09-13T09:06:12;97412.13;;;29.25;42.93
8894;BME280;4483;48.622;9.230;2022-09-13T09:08:43;97400.63;;;29.60;42.38
8894;BME280;4483;48.622;9.230;2022-09-13T09:11:21;97397.09;;;29.53;41.88
8894;BME280;4483;48.622;9.230;2022-09-13T09:13:57;97385.09;;;29.15;42.99
8894;BME280;4483;48.622;9.230;2022-09-13T09:16:32;97386.00;;;29.22;43.39
8894;BME280;4483;48.622;9.230;2022-09-13T09:19:08;97384.88;;;29.80;42.87
8894;BME280;4483;48.622;9.230;2022-09-13T09:21:37;97349.16;;;30.16;42.05
8894;BME280;4483;48.622;9.230;2022-09-13T09:24:04;97373.09;;;30.50;41.48
8894;BME280;4483;48.622;9.230;2022-09-13T09:26:31;97363.31;;;30.64;41.11
8894;BME280;4483;48.622;9.230;2022-09-13T09:29:04;97360.63;;;30.51;41.30
8894;BME280;4483;48.622;9.230;2022-09-13T09:31:39;97365.91;;;30.10;41.68
8894;BME280;4483;48.622;9.230;2022-09-13T09:34:17;97367.06;;;30.01;42.10
8894;BME280;4483;48.622;9.230;2022-09-13T09:36:52;97360.38;;;30.39;41.89
8894;BME280;4483;48.622;9.230;2022-09-13T09:39:30;97373.66;;;30.87;39.88
8894;BME280;4483;48.622;9.230;2022-09-13T09:42:03;97372.81;;;30.86;39.67
8894;BME280;4483;48.622;9.230;2022-09-13T09:44:32;97372.81;;;30.86;40.24
8894;BME280;4483;48.622;9.230;2022-09-13T09:47:02;97378.19;;;30.93;39.73
8894;BME280;4483;48.622;9.230;2022-09-13T09:49:33;97382.31;;;31.08;39.58
8894;BME280;4483;48.622;9.230;2022-09-13T09:52:22;97380.91;;;31.25;39.42
8894;BME280;4483;48.622;9.230;2022-09-13T09:54:53;97384.66;;;31.57;38.76
8894;BME280;4483;48.622;9.230;2022-09-13T09:57:48;97383.63;;;31.58;38.92
8894;BME280;4483;48.622;9.230;2022-09-13T10:00:18;97378.09;;;31.40;38.80
8894;BME280;4483;48.622;9.230;2022-09-13T10:02:46;97379.25;;;31.11;39.11
8894;BME280;4483;48.622;9.230;2022-09-13T10:05:17;97388.00;;;30.86;39.45
8894;BME280;4483;48.622;9.230;2022-09-13T10:07:51;97397.25;;;30.55;39.41
8894;BME280;4483;48.622;9.230;2022-09-13T10:10:23;97380.41;;;30.42;39.73
8894;BME280;4483;48.622;9.230;2022-09-13T10:12:52;97401.94;;;30.53;39.75
8894;BME280;4483;48.622;9.230;2022-09-13T10:15:23;97400.31;;;30.59;39.82
8894;BME280;4483;48.622;9.230;2022-09-13T10:18:11;97399.28;;;30.53;39.82
8894;BME280;4483;48.622;9.230;2022-09-13T10:20:39;97400.53;;;30.64;40.15
8894;BME280;4483;48.622;9.230;2022-09-13T10:23:16;97398.06;;;31.03;40.05
8894;BME280;4483;48.622;9.230;2022-09-13T10:25:45;97390.41;;;31.47;39.04
8894;BME280;4483;48.622;9.230;2022-09-13T10:28:22;97394.50;;;31.70;38.05
8894;BME280;4483;48.622;9.230;2022-09-13T10:30:53;97385.69;;;31.69;37.75
8894;BME280;4483;48.622;9.230;2022-09-13T10:33:26;97380.16;;;31.64;37.68
8894;BME280;4483;48.622;9.230;2022-09-13T10:35:55;97379.53;;;31.88;37.50
8894;BME280;4483;48.622;9.230;2022-09-13T10:38:28;97384.03;;;32.07;36.52
8894;BME280;4483;48.622;9.230;2022-09-13T10:40:56;97376.78;;;32.53;36.06
8894;BME280;4483;48.622;9.230;2022-09-13T10:43:26;97364.06;;;32.93;35.60
8894;BME280;4483;48.622;9.230;2022-09-13T10:45:56;97348.75;;;33.20;34.11
8894;BME280;4483;48.622;9.230;2022-09-13T10:48:23;97348.59;;;33.39;34.22
8894;BME280;4483;48.622;9.230;2022-09-13T10:51:06;97357.97;;;33.55;34.01
8894;BME280;4483;48.622;9.230;2022-09-13T10:53:36;97361.94;;;33.71;33.37
8894;BME280;4483;48.622;9.230;2022-09-13T10:56:04;97363.00;;;33.88;32.26
8894;BME280;4483;48.622;9.230;2022-09-13T10:58:30;97344.72;;;34.09;30.96
8894;BME280;4483;48.622;9.230;2022-09-13T11:01:30;97355.06;;;34.42;29.90
8894;BME280;4483;48.622;9.230;2022-09-13T11:04:44;97350.59;;;34.72;28.20
8894;BME280;4483;48.622;9.230;2022-09-13T11:07:26;97344.28;;;34.67;28.31
8894;BME280;4483;48.622;9.230;2022-09-13T11:09:59;97359.44;;;34.55;28.31
8894;BME280;4483;48.622;9.230;2022-09-13T11:12:32;97345.84;;;34.56;28.20
8894;BME280;4483;48.622;9.230;2022-09-13T11:15:12;97329.22;;;34.84;27.84
8894;BME280;4483;48.622;9.230;2022-09-13T11:18:02;97333.56;;;35.14;27.71
8894;BME280;4483;48.622;9.230;2022-09-13T11:20:38;97333.56;;;35.26;27.80
8894;BME280;4483;48.622;9.230;2022-09-13T11:23:35;97320.56;;;35.00;27.43
8894;BME280;4483;48.622;9.230;2022-09-13T11:29:04;97327.13;;;34.86;27.76
8894;BME280;4483;48.622;9.230;2022-09-13T11:31:41;97334.28;;;34.92;27.89
8894;BME280;4483;48.622;9.230;2022-09-13T11:34:25;97336.06;;;34.80;28.32
8894;BME280;4483;48.622;9.230;2022-09-13T11:37:22;97335.38;;;34.36;28.72
8894;BME280;4483;48.622;9.230;2022-09-13T11:39:57;97330.03;;;34.00;28.59
8894;BME280;4483;48.622;9.230;2022-09-13T11:42:39;97334.34;;;33.95;29.06
8894;BME280;4483;48.622;9.230;2022-09-13T11:45:17;97327.50;;;34.05;29.10
8894;BME280;4483;48.622;9.230;2022-09-13T11:50:44;97340.13;;;34.16;29.40
8894;BME280;4483;48.622;9.230;2022-09-13T11:53:37;97345.28;;;33.93;29.33
8894;BME280;4483;48.622;9.230;2022-09-13T11:56:07;97335.06;;;33.66;29.36
8894;BME280;4483;48.622;9.230;2022-09-13T11:58:41;97333.72;;;33.50;29.14
8894;BME280;4483;48.622;9.230;2022-09-13T12:01:12;97330.84;;;33.51;29.17
8894;BME280;4483;48.622;9.230;2022-09-13T12:03:48;97326.06;;;33.60;28.68
8894;BME280;4483;48.622;9.230;2022-09-13T12:06:22;97317.78;;;33.86;28.62
8894;BME280;4483;48.622;9.230;2022-09-13T12:08:55;97318.00;;;34.09;28.22
8894;BME280;4483;48.622;9.230;2022-09-13T12:11:26;97322.75;;;34.25;28.57
8894;BME280;4483;48.622;9.230;2022-09-13T12:13:56;97309.16;;;34.45;28.34
8894;BME280;4483;48.622;9.230;2022-09-13T12:16:28;97309.50;;;34.48;28.30
8894;BME280;4483;48.622;9.230;2022-09-13T12:18:58;97312.66;;;34.45;28.14
8894;BME280;4483;48.622;9.230;2022-09-13T12:21:29;97314.94;;;34.24;28.68
8894;BME280;4483;48.622;9.230;2022-09-13T12:24:02;97315.91;;;34.11;28.17
8894;BME280;4483;48.622;9.230;2022-09-13T12:26:34;97315.81;;;34.00;28.51
8894;BME280;4483;48.622;9.230;2022-09-13T12:29:08;97318.69;;;33.80;28.52
8894;BME280;4483;48.622;9.230;2022-09-13T12:31:39;97314.00;;;33.51;28.71
8894;BME280;4483;48.622;9.230;2022-09-13T12:34:08;97318.28;;;33.27;28.84
8894;BME280;4483;48.622;9.230;2022-09-13T12:36:50;97312.66;;;33.11;29.00
8894;BME280;4483;48.622;9.230;2022-09-13T12:39:48;97317.56;;;33.14;28.73
8894;BME280;4483;48.622;9.230;2022-09-13T12:42:46;97300.50;;;33.39;28.03
8894;BME280;4483;48.622;9.230;2022-09-13T12:45:29;97302.44;;;33.57;28.12
8894;BME280;4483;48.622;9.230;2022-09-13T12:48:22;97290.59;;;33.71;27.48
8894;BME280;4483;48.622;9.230;2022-09-13T12:51:07;97282.28;;;33.79;27.07
8894;BME280;4483;48.622;9.230;2022-09-13T12:56:53;97282.25;;;33.86;25.72
8894;BME280;4483;48.622;9.230;2022-09-13T12:59:35;97277.28;;;34.07;25.34
8894;BME280;4483;48.622;9.230;2022-09-13T13:02:23;97273.78;;;34.07;25.20
8894;BME280;4483;48.622;9.230;2022-09-13T13:04:53;97269.94;;;34.03;25.15
8894;BME280;4483;48.622;9.230;2022-09-13T13:07:22;97257.38;;;34.03;24.75
8894;BME280;4483;48.622;9.230;2022-09-13T13:09:51;97251.81;;;34.05;24.80
8894;BME280;4483;48.622;9.230;2022-09-13T13:12:29;97250.75;;;33.88;24.90
8894;BME280;4483;48.622;9.230;2022-09-13T13:14:58;97248.09;;;33.70;25.19
8894;BME280;4483;48.622;9.230;2022-09-13T13:17:37;97249.41;;;33.36;25.42
8894;BME280;4483;48.622;9.230;2022-09-13T13:20:44;97240.16;;;32.83;26.45
8894;BME280;4483;48.622;9.230;2022-09-13T13:23:17;97231.47;;;32.63;26.57
8894;BME280;4483;48.622;9.230;2022-09-13T13:25:56;97230.31;;;32.45;27.77
8894;BME280;4483;48.622;9.230;2022-09-13T13:28:49;97228.75;;;32.69;26.59
8894;BME280;4483;48.622;9.230;2022-09-13T13:31:37;97225.28;;;32.69;26.98
8894;BME280;4483;48.622;9.230;2022-09-13T13:37:33;97226.19;;;32.81;25.98
8894;BME280;4483;48.622;9.230;2022-09-13T13:40:19;97239.97;;;32.78;26.01
8894;BME280;4483;48.622;9.230;2022-09-13T13:42:46;97230.41;;;32.64;26.23
8894;BME280;4483;48.622;9.230;2022-09-13T13:45:21;97223.97;;;32.46;25.57
8894;BME280;4483;48.622;9.230;2022-09-13T13:53:42;97236.22;;;32.03;27.26
8894;BME280;4483;48.622;9.230;2022-09-13T13:56:23;97235.28;;;31.78;28.13
8894;BME280;4483;48.622;9.230;2022-09-13T13:58:53;97231.84;;;31.65;28.47
8894;BME280;4483;48.622;9.230;2022-09-13T14:01:25;97230.63;;;31.54;29.21
8894;BME280;4483;48.622;9.230;2022-09-13T14:06:54;97218.56;;;31.51;29.84
8894;BME280;4483;48.622;9.230;2022-09-13T14:09:29;97216.03;;;31.70;29.76
8894;BME280;4483;48.622;9.230;2022-09-13T14:12:15;97215.16;;;31.95;30.52
8894;BME280;4483;48.622;9.230;2022-09-13T14:15:00;97213.19;;;32.22;29.86
8894;BME280;4483;48.622;9.230;2022-09-13T14:17:41;97203.47;;;32.47;30.45